WXM80 ListenWXM80 Stop

You find our weather info also at:

UK Metoffice

WeatherCloud

Weather Underground

Northeastern Weather Network

AWEKAS

Citizen Weather Observer Program (CWOP)

HAMweather, WeatherForYou, PWS Weather


Weather Underground History page Text

Daily Summary for May 2, 2017 Units:  English    Metric   Both
« Previous Day
Next Day »
Daily Weekly Monthly Yearly Custom
  High: Low: Average:
Temperature: 78.7 °F 62.4 °F 68.7 °F
Dew Point: 67.7 °F 41.3 °F 55.5 °F
Humidity: 95 % 37 % 67 %
Wind Speed: 13.7 mph 0.9 mph 5.7 mph
Wind Gust: 27.6 mph - -
Wind:- - SW
Pressure: 29.73 in 29.50 in -
Precipitation: 0.00 in    
Historical Graphs
 
 
Tabular Data for May 2, 2017
Time Temperature Dew Point Pressure Wind Wind Speed Wind Gust Humidity Rainfall Rate (Hourly)
00:03 64.1 °F 61.4 °F 29.63 in WSW 6.2 mph 9.2 mph 91 % 0.00 in
00:08 64.1 °F 61.1 °F 29.62 in SSE 4.9 mph 10.4 mph 90 % 0.00 in
00:13 64.0 °F 61.3 °F 29.62 in SW 4.2 mph 10.4 mph 91 % 0.00 in
00:18 64.0 °F 61.3 °F 29.62 in SSW 7.6 mph 12.7 mph 91 % 0.00 in
00:23 64.0 °F 61.3 °F 29.62 in SW 3.9 mph 5.8 mph 91 % 0.00 in
00:28 64.1 °F 61.4 °F 29.61 in SSW 7.9 mph 10.4 mph 91 % 0.00 in
00:33 64.1 °F 61.4 °F 29.62 in South 9.7 mph 12.7 mph 91 % 0.00 in
00:38 64.2 °F 61.5 °F 29.61 in SSW 6.4 mph 11.5 mph 91 % 0.00 in
00:43 64.2 °F 61.5 °F 29.61 in SSW 11.1 mph 23.0 mph 91 % 0.00 in
00:48 64.4 °F 61.7 °F 29.61 in SSW 7.7 mph 18.4 mph 91 % 0.00 in
00:54 64.6 °F 61.9 °F 29.61 in SSW 9.2 mph 16.1 mph 91 % 0.00 in
00:59 64.8 °F 62.1 °F 29.61 in ESE 8.4 mph 16.1 mph 91 % 0.00 in
01:04 64.9 °F 61.9 °F 29.60 in SSE 9.4 mph 20.7 mph 90 % 0.00 in
01:09 65.0 °F 62.0 °F 29.60 in South 7.2 mph 15.0 mph 90 % 0.00 in
01:14 65.0 °F 61.7 °F 29.61 in South 8.1 mph 12.7 mph 89 % 0.00 in
01:19 65.0 °F 61.7 °F 29.61 in SSW 6.1 mph 11.5 mph 89 % 0.00 in
01:24 65.0 °F 61.7 °F 29.61 in South 7.1 mph 10.0 mph 89 % 0.00 in
01:29 64.9 °F 61.6 °F 29.61 in South 7.1 mph 12.7 mph 89 % 0.00 in
01:34 64.9 °F 61.6 °F 29.61 in SSW 8.6 mph 10.4 mph 89 % 0.00 in
01:39 65.0 °F 61.7 °F 29.60 in South 8.7 mph 10.4 mph 89 % 0.00 in
01:45 65.0 °F 61.7 °F 29.59 in South 7.4 mph 15.0 mph 89 % 0.00 in
01:50 65.0 °F 61.7 °F 29.59 in SSW 12.4 mph 19.6 mph 89 % 0.00 in
01:55 65.0 °F 61.7 °F 29.59 in SSW 6.0 mph 12.7 mph 89 % 0.00 in
02:00 65.0 °F 61.7 °F 29.59 in SSW 9.3 mph 18.4 mph 89 % 0.00 in
02:05 64.9 °F 61.6 °F 29.59 in SSW 7.1 mph 15.0 mph 89 % 0.00 in
02:10 64.9 °F 61.6 °F 29.59 in South 3.0 mph 6.9 mph 89 % 0.00 in
02:15 64.8 °F 61.5 °F 29.58 in SSW 5.0 mph 8.1 mph 89 % 0.00 in
02:20 64.9 °F 61.6 °F 29.58 in SW 8.9 mph 11.5 mph 89 % 0.00 in
02:25 64.9 °F 61.6 °F 29.58 in SSW 7.1 mph 16.1 mph 89 % 0.00 in
02:30 64.9 °F 61.6 °F 29.59 in South 10.0 mph 11.5 mph 89 % 0.00 in
02:35 64.9 °F 61.6 °F 29.58 in SW 6.6 mph 14.0 mph 89 % 0.00 in
02:40 64.9 °F 61.6 °F 29.58 in South 8.6 mph 11.5 mph 89 % 0.00 in
02:46 64.9 °F 61.6 °F 29.57 in SSW 5.0 mph 12.0 mph 89 % 0.00 in
02:51 64.8 °F 61.5 °F 29.57 in SSW 3.0 mph 12.0 mph 89 % 0.00 in
02:56 64.8 °F 61.5 °F 29.58 in SSW 3.9 mph 6.9 mph 89 % 0.00 in
03:01 64.6 °F 61.3 °F 29.58 in SSW 7.3 mph 13.8 mph 89 % 0.00 in
03:06 64.5 °F 61.2 °F 29.57 in South 6.7 mph 11.5 mph 89 % 0.00 in
03:11 64.4 °F 61.1 °F 29.57 in South 5.7 mph 8.1 mph 89 % 0.00 in
03:16 64.2 °F 60.9 °F 29.57 in SSE 5.1 mph 8.1 mph 89 % 0.00 in
03:21 64.1 °F 61.1 °F 29.57 in SSW 5.8 mph 8.1 mph 90 % 0.00 in
03:26 63.9 °F 60.9 °F 29.57 in SSW 6.3 mph 11.5 mph 90 % 0.00 in
03:32 63.8 °F 60.8 °F 29.57 in SSW 4.3 mph 10.4 mph 90 % 0.00 in
03:37 63.7 °F 60.7 °F 29.57 in SSW 4.7 mph 6.9 mph 90 % 0.00 in
03:42 63.7 °F 61.0 °F 29.57 in SSW 5.6 mph 13.8 mph 91 % 0.00 in
03:47 63.6 °F 60.9 °F 29.57 in SW 5.5 mph 10.4 mph 91 % 0.00 in
03:52 63.7 °F 61.3 °F 29.57 in South 6.3 mph 11.5 mph 92 % 0.00 in
03:57 63.8 °F 61.4 °F 29.57 in South 3.5 mph 7.0 mph 92 % 0.00 in
04:02 63.9 °F 61.8 °F 29.55 in SSW 4.8 mph 7.0 mph 93 % 0.00 in
04:07 64.0 °F 61.9 °F 29.56 in South 2.7 mph 6.9 mph 93 % 0.00 in
04:12 64.1 °F 62.0 °F 29.56 in SSW 5.5 mph 7.0 mph 93 % 0.00 in
04:17 64.1 °F 62.0 °F 29.55 in South 4.4 mph 8.1 mph 93 % 0.00 in
04:22 64.1 °F 62.0 °F 29.56 in South 7.9 mph 8.1 mph 93 % 0.00 in
04:28 64.1 °F 62.0 °F 29.57 in SSW 5.6 mph 9.2 mph 93 % 0.00 in
04:33 64.0 °F 61.9 °F 29.56 in South 6.8 mph 15.0 mph 93 % 0.00 in
04:38 63.8 °F 61.7 °F 29.56 in SSW 6.3 mph 13.8 mph 93 % 0.00 in
04:43 63.6 °F 61.5 °F 29.56 in SE 3.5 mph 10.0 mph 93 % 0.00 in
04:48 63.4 °F 61.3 °F 29.56 in South 5.0 mph 12.7 mph 93 % 0.00 in
04:53 63.1 °F 61.0 °F 29.55 in SSW 2.9 mph 7.0 mph 93 % 0.00 in
04:58 63.0 °F 61.2 °F 29.55 in South 4.9 mph 7.0 mph 94 % 0.00 in
05:03 62.9 °F 61.1 °F 29.54 in South 3.3 mph 6.0 mph 94 % 0.00 in
05:08 62.9 °F 61.1 °F 29.56 in SSE 3.9 mph 10.4 mph 94 % 0.00 in
05:13 62.8 °F 61.0 °F 29.56 in SSW 5.2 mph 8.1 mph 94 % 0.00 in
05:18 62.7 °F 61.2 °F 29.56 in South 4.0 mph 7.0 mph 95 % 0.00 in
05:24 62.8 °F 61.3 °F 29.56 in South 4.9 mph 7.0 mph 95 % 0.00 in
05:29 62.9 °F 61.4 °F 29.56 in SSW 4.4 mph 10.4 mph 95 % 0.00 in
05:34 63.0 °F 61.5 °F 29.56 in South 4.6 mph 6.9 mph 95 % 0.00 in
05:39 63.0 °F 61.5 °F 29.56 in SSW 4.8 mph 9.2 mph 95 % 0.00 in
05:44 63.1 °F 61.6 °F 29.57 in South 4.3 mph 8.1 mph 95 % 0.00 in
05:49 63.1 °F 61.6 °F 29.57 in SW 4.8 mph 8.1 mph 95 % 0.00 in
05:54 63.1 °F 61.6 °F 29.57 in SSW 4.4 mph 8.1 mph 95 % 0.00 in
05:59 63.1 °F 61.6 °F 29.57 in SSW 5.7 mph 9.0 mph 95 % 0.00 in
06:04 63.1 °F 61.6 °F 29.56 in SSW 3.5 mph 6.9 mph 95 % 0.00 in
06:09 63.0 °F 61.2 °F 29.57 in SW 3.5 mph 9.2 mph 94 % 0.00 in
06:14 63.1 °F 61.3 °F 29.56 in South 3.3 mph 6.9 mph 94 % 0.00 in
06:19 63.1 °F 61.3 °F 29.56 in South 3.6 mph 5.8 mph 94 % 0.00 in
06:25 63.2 °F 61.4 °F 29.56 in South 3.4 mph 10.4 mph 94 % 0.00 in
06:30 63.3 °F 61.5 °F 29.55 in South 5.5 mph 12.7 mph 94 % 0.00 in
06:35 63.4 °F 61.9 °F 29.56 in SSE 2.2 mph 4.6 mph 95 % 0.00 in
06:40 63.5 °F 62.0 °F 29.56 in SW 3.9 mph 10.0 mph 95 % 0.00 in
06:45 63.5 °F 61.7 °F 29.56 in West 2.8 mph 6.9 mph 94 % 0.00 in
06:50 63.5 °F 61.7 °F 29.56 in SW 4.6 mph 6.0 mph 94 % 0.00 in
06:55 63.4 °F 61.6 °F 29.55 in SSW 5.4 mph 8.1 mph 94 % 0.00 in
07:00 63.4 °F 61.6 °F 29.56 in SSW 5.2 mph 10.4 mph 94 % 0.00 in
07:05 63.3 °F 61.5 °F 29.56 in SSW 4.1 mph 5.0 mph 94 % 0.00 in
07:10 63.2 °F 61.4 °F 29.55 in South 4.4 mph 8.0 mph 94 % 0.00 in
07:15 63.0 °F 60.9 °F 29.55 in South 3.8 mph 6.0 mph 93 % 0.00 in
07:21 62.9 °F 60.8 °F 29.55 in South 5.0 mph 12.0 mph 93 % 0.00 in
07:26 62.9 °F 61.1 °F 29.55 in South 3.0 mph 8.0 mph 94 % 0.00 in
07:30 62.9 °F 61.1 °F 29.55 in SSW 5.0 mph 10.0 mph 94 % 0.00 in
07:35 63.0 °F 61.2 °F 29.55 in SSW 6.0 mph 10.0 mph 94 % 0.00 in
07:40 63.0 °F 61.3 °F 29.55 in SSW 3.0 mph 9.0 mph 94 % 0.00 in
07:45 63.2 °F 61.4 °F 29.54 in South 5.0 mph 8.0 mph 94 % 0.00 in
07:50 63.4 °F 61.6 °F 29.54 in SSW 5.3 mph 11.5 mph 94 % 0.00 in
07:56 63.7 °F 61.9 °F 29.54 in South 6.0 mph 12.0 mph 94 % 0.00 in
08:01 63.8 °F 62.0 °F 29.54 in SSW 5.5 mph 9.2 mph 94 % 0.00 in
08:06 63.9 °F 62.1 °F 29.54 in SW 4.6 mph 10.4 mph 94 % 0.00 in
08:11 64.2 °F 62.4 °F 29.55 in SSW 5.8 mph 8.1 mph 94 % 0.00 in
08:16 64.4 °F 62.3 °F 29.55 in SSW 6.6 mph 9.2 mph 93 % 0.00 in
08:21 64.4 °F 62.3 °F 29.55 in SW 5.0 mph 10.0 mph 93 % 0.00 in
08:26 64.4 °F 62.3 °F 29.54 in SSW 4.8 mph 9.0 mph 93 % 0.00 in
08:31 64.4 °F 62.3 °F 29.54 in SSW 3.5 mph 5.8 mph 93 % 0.00 in
08:36 64.6 °F 62.5 °F 29.54 in SSW 3.9 mph 5.8 mph 93 % 0.00 in
08:41 64.9 °F 62.8 °F 29.54 in WSW 1.7 mph 4.0 mph 93 % 0.00 in
08:46 65.5 °F 63.7 °F 29.53 in SW 2.7 mph 7.0 mph 94 % 0.00 in
08:51 65.8 °F 63.7 °F 29.54 in SSW 5.3 mph 11.5 mph 93 % 0.00 in
08:57 66.1 °F 63.7 °F 29.55 in WSW 4.2 mph 5.0 mph 92 % 0.00 in
09:02 66.3 °F 63.6 °F 29.55 in WSW 4.6 mph 9.2 mph 91 % 0.00 in
09:07 66.3 °F 63.6 °F 29.55 in SW 5.2 mph 8.1 mph 91 % 0.00 in
09:12 66.3 °F 63.6 °F 29.54 in SW 1.3 mph 4.6 mph 91 % 0.00 in
09:17 66.4 °F 63.7 °F 29.54 in SSW 4.6 mph 10.4 mph 91 % 0.00 in
09:22 66.7 °F 64.0 °F 29.54 in South 1.2 mph 6.9 mph 91 % 0.00 in
09:27 67.2 °F 64.8 °F 29.54 in South 4.2 mph 5.8 mph 92 % 0.00 in
09:32 67.7 °F 64.7 °F 29.54 in SSW 2.8 mph 5.8 mph 90 % 0.00 in
09:37 68.2 °F 65.2 °F 29.54 in SSW 4.7 mph 6.9 mph 90 % 0.00 in
09:42 68.7 °F 65.3 °F 29.54 in SW 3.9 mph 6.9 mph 89 % 0.00 in
09:47 69.4 °F 65.7 °F 29.54 in SSW 0.9 mph 5.8 mph 88 % 0.00 in
09:53 70.1 °F 66.0 °F 29.53 in SW 5.6 mph 10.4 mph 87 % 0.00 in
09:58 70.9 °F 66.8 °F 29.53 in SW 1.7 mph 3.5 mph 87 % 0.00 in
10:03 71.5 °F 66.4 °F 29.53 in South 2.0 mph 5.8 mph 84 % 0.00 in
10:08 72.1 °F 66.3 °F 29.52 in SW 6.2 mph 10.4 mph 82 % 0.00 in
10:13 72.4 °F 65.9 °F 29.52 in SW 4.3 mph 8.1 mph 80 % 0.00 in
10:18 72.8 °F 67.0 °F 29.52 in SSW 4.2 mph 6.9 mph 82 % 0.00 in
10:23 73.5 °F 67.7 °F 29.52 in SW 1.5 mph 4.0 mph 82 % 0.00 in
10:28 74.1 °F 67.5 °F 29.51 in WSW 1.8 mph 4.6 mph 80 % 0.00 in
10:33 74.7 °F 67.0 °F 29.51 in WSW 4.4 mph 7.0 mph 77 % 0.00 in
10:38 75.0 °F 66.5 °F 29.52 in SW 1.2 mph 4.6 mph 75 % 0.00 in
10:43 75.2 °F 66.3 °F 29.52 in WSW 1.7 mph 6.9 mph 74 % 0.00 in
10:49 75.3 °F 66.8 °F 29.52 in SW 3.3 mph 4.6 mph 75 % 0.00 in
10:54 75.3 °F 66.4 °F 29.52 in SW 3.1 mph 5.8 mph 74 % 0.00 in
10:59 75.7 °F 66.4 °F 29.51 in SSW 3.9 mph 6.9 mph 73 % 0.00 in
11:04 76.0 °F 65.9 °F 29.52 in SSW 6.7 mph 9.2 mph 71 % 0.00 in
11:09 76.3 °F 65.4 °F 29.52 in WSW 5.1 mph 6.9 mph 69 % 0.00 in
11:14 76.5 °F 63.9 °F 29.51 in SW 7.8 mph 11.5 mph 65 % 0.00 in
11:15 76.6 °F 64.4 °F 29.51 in SW 3.8 mph 9.2 mph 66 % 0.00 in
11:20 76.8 °F 63.2 °F 29.51 in WSW 3.0 mph 9.0 mph 63 % 0.00 in
11:25 76.7 °F 60.8 °F 29.52 in WNW 3.7 mph 8.1 mph 58 % 0.00 in
11:31 77.0 °F 61.1 °F 29.51 in WSW 5.0 mph 9.0 mph 58 % 0.00 in
11:36 77.3 °F 61.9 °F 29.51 in WSW 6.0 mph 12.0 mph 59 % 0.00 in
11:41 77.4 °F 61.9 °F 29.51 in West 2.0 mph 7.0 mph 59 % 0.00 in
11:46 77.3 °F 61.4 °F 29.51 in West 5.3 mph 5.8 mph 58 % 0.00 in
11:51 76.9 °F 61.0 °F 29.50 in WSW 3.0 mph 8.0 mph 58 % 0.00 in
11:56 76.8 °F 61.4 °F 29.51 in WSW 3.0 mph 10.0 mph 59 % 0.00 in
12:01 76.3 °F 60.4 °F 29.50 in SW 5.4 mph 10.4 mph 58 % 0.00 in
12:06 76.2 °F 59.4 °F 29.51 in WSW 3.9 mph 9.2 mph 56 % 0.00 in
12:11 76.3 °F 59.9 °F 29.51 in WSW 1.9 mph 3.5 mph 57 % 0.00 in
12:16 76.7 °F 59.3 °F 29.51 in West 3.1 mph 9.0 mph 55 % 0.00 in
12:21 77.2 °F 61.3 °F 29.50 in NW 6.4 mph 10.4 mph 58 % 0.00 in
12:26 77.6 °F 60.2 °F 29.51 in WSW 4.6 mph 10.4 mph 55 % 0.00 in
12:31 77.7 °F 60.2 °F 29.51 in West 4.2 mph 12.7 mph 55 % 0.00 in
12:36 77.8 °F 61.3 °F 29.51 in SW 2.5 mph 9.2 mph 57 % 0.00 in
12:41 77.8 °F 59.3 °F 29.51 in NW 6.6 mph 13.8 mph 53 % 0.00 in
12:46 77.9 °F 59.4 °F 29.51 in WNW 5.2 mph 8.1 mph 53 % 0.00 in
12:51 78.1 °F 59.0 °F 29.51 in SSW 4.7 mph 8.1 mph 52 % 0.00 in
12:57 78.4 °F 58.2 °F 29.51 in SW 4.0 mph 12.7 mph 50 % 0.00 in
13:02 78.7 °F 57.4 °F 29.51 in WNW 4.8 mph 10.4 mph 48 % 0.00 in
13:07 78.7 °F 56.8 °F 29.51 in WNW 6.0 mph 10.4 mph 47 % 0.00 in
13:12 78.2 °F 56.9 °F 29.51 in WSW 5.9 mph 9.2 mph 48 % 0.00 in
13:17 77.5 °F 57.9 °F 29.51 in NW 4.5 mph 11.0 mph 51 % 0.00 in
13:22 77.1 °F 56.5 °F 29.52 in WNW 5.6 mph 8.1 mph 49 % 0.00 in
13:27 77.0 °F 56.4 °F 29.52 in South 5.1 mph 6.9 mph 49 % 0.00 in
13:31 76.9 °F 56.3 °F 29.52 in WSW 6.7 mph 12.7 mph 49 % 0.00 in
13:36 76.8 °F 56.8 °F 29.51 in SW 7.0 mph 16.0 mph 50 % 0.00 in
13:41 77.0 °F 56.4 °F 29.51 in SW 7.0 mph 15.0 mph 49 % 0.00 in
13:46 77.1 °F 55.3 °F 29.51 in WSW 8.0 mph 18.0 mph 47 % 0.00 in
13:51 76.7 °F 55.0 °F 29.51 in West 7.0 mph 20.0 mph 47 % 0.00 in
13:56 76.2 °F 54.5 °F 29.51 in WSW 8.0 mph 20.0 mph 47 % 0.00 in
14:01 76.1 °F 55.0 °F 29.51 in WSW 6.5 mph 18.4 mph 48 % 0.00 in
14:06 76.3 °F 55.7 °F 29.51 in WSW 5.0 mph 21.0 mph 49 % 0.00 in
14:11 76.3 °F 54.6 °F 29.51 in WSW 9.0 mph 21.0 mph 47 % 0.00 in
14:16 76.3 °F 55.2 °F 29.52 in West 7.0 mph 17.0 mph 48 % 0.00 in
14:21 76.2 °F 55.6 °F 29.52 in WSW 8.0 mph 16.0 mph 49 % 0.00 in
14:26 76.1 °F 55.5 °F 29.51 in WSW 6.0 mph 20.0 mph 49 % 0.00 in
14:31 75.7 °F 55.2 °F 29.51 in WSW 6.8 mph 15.0 mph 49 % 0.00 in
14:36 75.8 °F 55.8 °F 29.51 in WSW 7.0 mph 13.0 mph 50 % 0.00 in
14:41 76.0 °F 56.0 °F 29.51 in West 8.0 mph 14.0 mph 50 % 0.00 in
14:46 76.2 °F 55.6 °F 29.51 in WSW 6.0 mph 17.0 mph 49 % 0.00 in
14:51 76.4 °F 54.7 °F 29.51 in WSW 8.0 mph 16.0 mph 47 % 0.00 in
14:56 76.3 °F 54.6 °F 29.51 in WSW 7.2 mph 13.8 mph 47 % 0.00 in
15:01 76.5 °F 54.8 °F 29.51 in West 4.8 mph 13.8 mph 47 % 0.00 in
15:06 76.7 °F 55.0 °F 29.51 in WSW 11.0 mph 14.0 mph 47 % 0.00 in
15:11 76.9 °F 55.1 °F 29.51 in SW 7.5 mph 13.8 mph 47 % 0.00 in
15:16 76.8 °F 55.0 °F 29.51 in SW 6.9 mph 16.0 mph 47 % 0.00 in
15:21 76.4 °F 54.7 °F 29.51 in West 8.7 mph 18.0 mph 47 % 0.00 in
15:27 76.2 °F 53.3 °F 29.51 in West 12.1 mph 24.0 mph 45 % 0.00 in
15:32 75.9 °F 53.6 °F 29.51 in WSW 11.7 mph 20.7 mph 46 % 0.00 in
15:37 75.9 °F 53.6 °F 29.51 in SW 9.9 mph 21.9 mph 46 % 0.00 in
15:42 75.9 °F 53.0 °F 29.51 in SSW 9.6 mph 18.4 mph 45 % 0.00 in
15:47 76.0 °F 53.1 °F 29.51 in West 8.4 mph 12.0 mph 45 % 0.00 in
15:52 76.2 °F 53.3 °F 29.51 in WSW 7.1 mph 13.8 mph 45 % 0.00 in
15:57 75.9 °F 53.6 °F 29.51 in SW 8.1 mph 18.4 mph 46 % 0.00 in
16:02 75.7 °F 52.8 °F 29.51 in West 10.1 mph 26.5 mph 45 % 0.00 in
16:07 75.7 °F 52.8 °F 29.52 in WSW 8.0 mph 14.0 mph 45 % 0.00 in
16:12 75.8 °F 53.5 °F 29.52 in WSW 7.9 mph 12.7 mph 46 % 0.00 in
16:17 75.7 °F 52.8 °F 29.52 in WSW 7.0 mph 13.8 mph 45 % 0.00 in
16:22 75.6 °F 52.8 °F 29.51 in SSW 7.0 mph 19.6 mph 45 % 0.00 in
16:28 75.3 °F 51.9 °F 29.52 in SW 8.9 mph 17.3 mph 44 % 0.00 in
16:33 75.0 °F 52.8 °F 29.52 in WSW 7.9 mph 21.0 mph 46 % 0.00 in
16:38 74.9 °F 52.1 °F 29.52 in WNW 9.7 mph 15.0 mph 45 % 0.00 in
16:43 74.9 °F 52.7 °F 29.53 in SW 5.8 mph 18.0 mph 46 % 0.00 in
16:48 74.8 °F 52.0 °F 29.53 in West 9.1 mph 18.4 mph 45 % 0.00 in
16:53 74.7 °F 51.3 °F 29.53 in WSW 10.4 mph 17.3 mph 44 % 0.00 in
16:58 74.7 °F 50.7 °F 29.53 in WSW 5.4 mph 11.5 mph 43 % 0.00 in
17:03 74.7 °F 49.4 °F 29.53 in WSW 9.4 mph 20.0 mph 41 % 0.00 in
17:08 74.4 °F 47.8 °F 29.54 in WNW 7.8 mph 19.6 mph 39 % 0.00 in
17:13 74.2 °F 47.6 °F 29.54 in WSW 10.4 mph 26.5 mph 39 % 0.00 in
17:18 74.0 °F 46.8 °F 29.54 in SSW 6.3 mph 15.0 mph 38 % 0.00 in
17:23 73.9 °F 46.7 °F 29.55 in SSW 7.5 mph 12.7 mph 38 % 0.00 in
17:28 73.7 °F 45.8 °F 29.55 in SW 13.7 mph 20.7 mph 37 % 0.00 in
17:33 73.6 °F 46.4 °F 29.55 in West 12.8 mph 19.6 mph 38 % 0.00 in
17:38 73.5 °F 45.6 °F 29.56 in WSW 11.7 mph 20.7 mph 37 % 0.00 in
17:43 73.4 °F 45.5 °F 29.56 in SSW 9.1 mph 16.1 mph 37 % 0.00 in
17:49 73.2 °F 46.1 °F 29.56 in WNW 8.3 mph 17.0 mph 38 % 0.00 in
17:54 73.0 °F 45.9 °F 29.57 in WSW 10.7 mph 27.6 mph 38 % 0.00 in
17:59 72.6 °F 46.2 °F 29.57 in West 10.2 mph 20.7 mph 39 % 0.00 in
18:04 72.2 °F 45.9 °F 29.58 in WSW 10.0 mph 17.3 mph 39 % 0.00 in
18:09 71.9 °F 46.3 °F 29.59 in WSW 4.6 mph 11.5 mph 40 % 0.00 in
18:14 71.6 °F 46.6 °F 29.59 in WSW 5.4 mph 9.2 mph 41 % 0.00 in
18:19 71.3 °F 45.1 °F 29.59 in West 5.2 mph 13.0 mph 39 % 0.00 in
18:24 70.9 °F 44.7 °F 29.59 in WSW 10.1 mph 15.0 mph 39 % 0.00 in
18:29 70.6 °F 44.4 °F 29.59 in WSW 5.7 mph 18.4 mph 39 % 0.00 in
18:34 70.3 °F 44.8 °F 29.60 in SW 9.6 mph 18.4 mph 40 % 0.00 in
18:39 70.0 °F 44.6 °F 29.60 in WSW 5.2 mph 11.5 mph 40 % 0.00 in
18:44 69.8 °F 43.7 °F 29.61 in South 8.1 mph 16.1 mph 39 % 0.00 in
18:49 69.6 °F 44.2 °F 29.61 in SW 6.3 mph 11.5 mph 40 % 0.00 in
18:54 69.5 °F 44.1 °F 29.61 in SW 3.7 mph 10.4 mph 40 % 0.00 in
18:59 69.2 °F 43.8 °F 29.62 in SW 5.9 mph 11.5 mph 40 % 0.00 in
19:04 69.0 °F 43.7 °F 29.62 in SW 4.4 mph 12.7 mph 40 % 0.00 in
19:10 68.8 °F 43.5 °F 29.62 in WSW 6.8 mph 11.0 mph 40 % 0.00 in
19:15 68.5 °F 42.6 °F 29.62 in SW 4.3 mph 9.2 mph 39 % 0.00 in
19:20 68.3 °F 42.4 °F 29.62 in WNW 5.2 mph 12.7 mph 39 % 0.00 in
19:25 68.1 °F 42.2 °F 29.62 in SW 7.1 mph 10.4 mph 39 % 0.00 in
19:30 67.9 °F 42.0 °F 29.62 in WSW 7.7 mph 15.0 mph 39 % 0.00 in
19:35 67.8 °F 42.6 °F 29.62 in West 7.2 mph 15.0 mph 40 % 0.00 in
19:40 67.7 °F 42.5 °F 29.63 in WSW 4.9 mph 9.2 mph 40 % 0.00 in
19:45 67.6 °F 43.1 °F 29.63 in West 8.4 mph 12.7 mph 41 % 0.00 in
19:50 67.4 °F 42.9 °F 29.63 in WSW 7.7 mph 12.7 mph 41 % 0.00 in
19:55 67.2 °F 43.3 °F 29.63 in WSW 4.1 mph 6.9 mph 42 % 0.00 in
20:00 67.0 °F 43.1 °F 29.64 in SW 3.5 mph 6.9 mph 42 % 0.00 in
20:05 66.8 °F 43.6 °F 29.64 in SSW 6.3 mph 9.2 mph 43 % 0.00 in
20:10 66.6 °F 43.4 °F 29.64 in West 5.7 mph 9.2 mph 43 % 0.00 in
20:15 66.5 °F 43.9 °F 29.64 in WSW 4.3 mph 11.5 mph 44 % 0.00 in
20:20 66.3 °F 43.7 °F 29.64 in WNW 4.8 mph 6.9 mph 44 % 0.00 in
20:25 66.2 °F 43.6 °F 29.65 in WSW 2.2 mph 4.6 mph 44 % 0.00 in
20:30 66.0 °F 44.0 °F 29.65 in WSW 3.4 mph 5.0 mph 45 % 0.00 in
20:35 65.9 °F 43.9 °F 29.65 in WNW 2.5 mph 3.5 mph 45 % 0.00 in
20:40 65.7 °F 44.3 °F 29.66 in West 3.9 mph 8.1 mph 46 % 0.00 in
20:46 65.6 °F 44.3 °F 29.66 in West 2.0 mph 12.0 mph 46 % 0.00 in
20:51 65.5 °F 44.2 °F 29.66 in WSW 2.0 mph 9.0 mph 46 % 0.00 in
20:56 65.4 °F 44.1 °F 29.66 in WSW 3.0 mph 10.0 mph 46 % 0.00 in
21:01 65.3 °F 44.0 °F 29.67 in WSW 6.1 mph 6.1 mph 46 % 0.00 in
21:06 65.2 °F 43.9 °F 29.67 in WSW 5.0 mph 13.0 mph 46 % 0.00 in
21:11 65.3 °F 44.0 °F 29.67 in WSW 6.0 mph 14.0 mph 46 % 0.00 in
21:16 65.3 °F 44.0 °F 29.67 in WSW 5.0 mph 13.0 mph 46 % 0.00 in
21:21 65.4 °F 44.1 °F 29.68 in West 3.0 mph 9.0 mph 46 % 0.00 in
21:26 65.4 °F 44.1 °F 29.68 in West 5.0 mph 9.0 mph 46 % 0.00 in
21:31 65.4 °F 44.1 °F 29.68 in West 3.0 mph 12.0 mph 46 % 0.00 in
21:36 65.4 °F 43.5 °F 29.68 in West 6.0 mph 12.0 mph 45 % 0.00 in
21:41 65.4 °F 43.5 °F 29.69 in WSW 6.0 mph 12.0 mph 45 % 0.00 in
21:46 65.4 °F 43.5 °F 29.69 in West 5.0 mph 12.0 mph 45 % 0.00 in
21:51 65.4 °F 44.1 °F 29.69 in WNW 2.0 mph 7.0 mph 46 % 0.00 in
21:56 65.2 °F 43.3 °F 29.70 in West 7.0 mph 14.0 mph 45 % 0.00 in
22:01 65.0 °F 43.1 °F 29.70 in WSW 5.7 mph 10.4 mph 45 % 0.00 in
22:06 64.8 °F 42.4 °F 29.70 in WSW 9.9 mph 17.0 mph 44 % 0.00 in
22:11 64.7 °F 41.7 °F 29.70 in WSW 9.2 mph 16.1 mph 43 % 0.00 in
22:16 64.6 °F 41.6 °F 29.71 in WSW 6.0 mph 11.5 mph 43 % 0.00 in
22:21 64.6 °F 41.6 °F 29.71 in West 6.5 mph 11.5 mph 43 % 0.00 in
22:26 64.5 °F 42.1 °F 29.72 in WNW 5.5 mph 8.1 mph 44 % 0.00 in
22:31 64.3 °F 41.3 °F 29.71 in SW 8.9 mph 15.0 mph 43 % 0.00 in
22:36 64.2 °F 41.8 °F 29.72 in West 5.7 mph 9.2 mph 44 % 0.00 in
22:41 64.1 °F 41.7 °F 29.72 in WSW 3.6 mph 6.9 mph 44 % 0.00 in
22:46 63.9 °F 42.1 °F 29.72 in NW 5.8 mph 10.4 mph 45 % 0.00 in
22:51 63.8 °F 42.0 °F 29.72 in WNW 5.8 mph 13.0 mph 45 % 0.00 in
22:56 63.6 °F 42.4 °F 29.72 in WNW 4.7 mph 8.1 mph 46 % 0.00 in
23:01 63.4 °F 42.2 °F 29.72 in West 5.6 mph 11.5 mph 46 % 0.00 in
23:07 63.3 °F 42.2 °F 29.72 in West 2.6 mph 9.0 mph 46 % 0.00 in
23:12 63.2 °F 42.1 °F 29.72 in WNW 3.2 mph 8.1 mph 46 % 0.00 in
23:17 63.1 °F 42.0 °F 29.72 in WSW 6.4 mph 10.4 mph 46 % 0.00 in
23:22 63.1 °F 42.0 °F 29.72 in West 4.7 mph 10.4 mph 46 % 0.00 in
23:27 63.0 °F 41.9 °F 29.72 in West 1.3 mph 9.2 mph 46 % 0.00 in
23:32 62.9 °F 41.8 °F 29.73 in WSW 4.6 mph 10.0 mph 46 % 0.00 in
23:37 62.8 °F 42.3 °F 29.73 in WSW 1.3 mph 2.3 mph 47 % 0.00 in
23:42 62.6 °F 42.1 °F 29.73 in WNW 4.3 mph 8.1 mph 47 % 0.00 in
23:47 62.6 °F 42.1 °F 29.73 in WNW 1.3 mph 10.4 mph 47 % 0.00 in
23:52 62.5 °F 42.0 °F 29.73 in West 3.1 mph 10.4 mph 47 % 0.00 in
23:57 62.4 °F 41.9 °F 29.73 in West 2.7 mph 6.9 mph 47 % 0.00 in
Crab Meadow Weather
Compliments of Weather Underground - 3 mb

Script developed by  Jim McMurry - jmcmurry@mwt.net Adapted for the template by  Wim van der Kuil - Leuven-Template.eu

Astronomy: The Sun is around 4.5 billion years old.